createdAt,value
2023-03-13T00:00:11.453Z,21.32
2023-03-13T00:05:16.241Z,21.23
2023-03-13T00:10:19.374Z,21.27
2023-03-13T00:15:22.377Z,21.22
2023-03-13T00:20:26.521Z,21.20
2023-03-13T00:25:29.268Z,21.17
2023-03-13T00:30:32.033Z,21.14
2023-03-13T00:35:36.177Z,21.10
2023-03-13T00:40:39.067Z,21.07
2023-03-13T00:45:41.851Z,21.02
2023-03-13T00:50:46.002Z,20.99
2023-03-13T00:55:53.300Z,20.97
2023-03-13T01:00:56.115Z,20.91
2023-03-13T01:06:01.107Z,20.89
2023-03-13T01:11:05.381Z,20.82
2023-03-13T01:16:10.193Z,20.80
2023-03-13T01:21:14.470Z,20.75
2023-03-13T01:26:17.471Z,20.70
2023-03-13T01:31:21.316Z,20.63
2023-03-13T01:36:25.669Z,20.59
2023-03-13T01:41:29.168Z,20.53
2023-03-13T01:46:32.091Z,20.47
2023-03-13T01:51:51.024Z,20.48
2023-03-13T01:56:55.229Z,20.37
2023-03-13T02:02:00.170Z,20.35
2023-03-13T02:07:06.268Z,20.26
2023-03-13T02:12:11.231Z,20.24
2023-03-13T02:17:14.869Z,20.21
2023-03-13T02:22:23.641Z,20.19
2023-03-13T02:27:28.258Z,20.15
2023-03-13T02:32:31.548Z,20.11
2023-03-13T02:37:34.535Z,20.08
2023-03-13T02:42:40.408Z,20.06
2023-03-13T02:47:43.429Z,20.01
2023-03-13T02:52:47.760Z,19.98
2023-03-13T02:57:52.688Z,19.97
2023-03-13T03:02:56.168Z,19.93
2023-03-13T03:07:59.087Z,19.92
2023-03-13T03:13:04.870Z,19.91
2023-03-13T03:18:07.724Z,19.90
2023-03-13T03:23:10.806Z,19.88
2023-03-13T03:28:15.104Z,19.84
2023-03-13T03:33:19.073Z,19.83
2023-03-13T03:38:21.952Z,19.82
2023-03-13T03:43:27.366Z,19.81
2023-03-13T03:48:31.771Z,19.80
2023-03-13T03:53:34.626Z,19.79
2023-03-13T03:58:39.119Z,19.78
2023-03-13T04:04:02.142Z,19.75
2023-03-13T04:09:05.220Z,19.61
2023-03-13T04:14:10.508Z,19.74
2023-03-13T04:19:13.694Z,19.71
2023-03-13T04:24:17.961Z,19.74
2023-03-13T04:29:22.959Z,19.72
2023-03-13T04:34:32.711Z,19.71
2023-03-13T04:39:44.666Z,19.71
2023-03-13T04:45:10.330Z,19.67
2023-03-13T04:50:25.284Z,19.67
2023-03-13T04:55:43.508Z,19.68
2023-03-13T05:01:13.904Z,19.66
2023-03-13T05:06:28.823Z,19.64
2023-03-13T05:11:58.325Z,19.63
2023-03-13T05:17:21.834Z,19.62
2023-03-13T05:22:43.222Z,19.61
2023-03-13T05:28:03.343Z,19.61
2023-03-13T05:33:16.351Z,19.60
2023-03-13T05:38:31.809Z,19.60
2023-03-13T05:43:48.117Z,19.59
2023-03-13T05:49:08.141Z,19.57
2023-03-13T05:54:40.149Z,19.55
2023-03-13T05:59:45.732Z,19.53
2023-03-13T06:05:15.508Z,19.52
2023-03-13T06:10:19.153Z,19.52
2023-03-13T06:15:22.071Z,19.52
2023-03-13T06:20:57.746Z,19.49
2023-03-13T06:26:01.341Z,19.49
2023-03-13T06:31:04.281Z,19.47
2023-03-13T06:36:09.388Z,19.47
2023-03-13T06:41:12.192Z,19.47
2023-03-13T06:46:17.602Z,19.47
2023-03-13T06:51:22.719Z,19.45
2023-03-13T06:56:25.647Z,19.45
2023-03-13T07:01:28.505Z,19.44
2023-03-13T07:06:32.661Z,19.44
2023-03-13T07:11:35.460Z,19.43
2023-03-13T07:16:38.546Z,19.44
2023-03-13T07:21:42.912Z,19.43
2023-03-13T07:27:01.878Z,19.40
2023-03-13T07:32:08.304Z,19.37
2023-03-13T07:37:12.756Z,19.38
2023-03-13T07:42:15.626Z,19.36
2023-03-13T07:47:18.527Z,19.35
2023-03-13T07:52:23.075Z,19.34
2023-03-13T07:57:25.856Z,19.40
2023-03-13T08:02:28.879Z,19.39
2023-03-13T08:07:33.106Z,19.39
2023-03-13T08:12:35.923Z,19.40
2023-03-13T08:17:38.790Z,19.43
2023-03-13T08:22:42.920Z,19.43
2023-03-13T08:27:45.801Z,19.43
2023-03-13T08:32:48.720Z,19.46
2023-03-13T08:37:53.094Z,19.44
2023-03-13T08:42:55.928Z,19.47
2023-03-13T08:47:58.789Z,19.46
2023-03-13T08:53:03.445Z,19.41
2023-03-13T08:58:06.218Z,19.45
2023-03-13T09:03:09.136Z,19.40
2023-03-13T09:08:13.288Z,19.20
2023-03-13T09:13:16.059Z,18.91
2023-03-13T09:18:18.899Z,18.71
2023-03-13T09:23:23.262Z,18.46
2023-03-13T09:28:26.558Z,18.27
2023-03-13T09:33:29.318Z,18.15
2023-03-13T09:38:33.513Z,18.09
2023-03-13T09:43:41.370Z,17.96
2023-03-13T09:48:44.906Z,17.86
2023-03-13T09:53:50.913Z,17.86
2023-03-13T09:58:55.792Z,17.76
2023-03-13T10:04:06.756Z,17.78
2023-03-13T10:09:21.455Z,17.74
2023-03-13T10:14:30.261Z,18.00
2023-03-13T10:19:34.040Z,18.32
2023-03-13T10:24:40.154Z,18.55
2023-03-13T10:29:43.000Z,18.73
2023-03-13T10:34:47.729Z,18.88
2023-03-13T10:39:52.275Z,18.98
2023-03-13T10:45:00.337Z,19.11
2023-03-13T10:50:03.296Z,19.17
2023-03-13T10:55:08.040Z,19.23
2023-03-13T11:00:28.953Z,19.32
2023-03-13T11:05:43.061Z,19.40
2023-03-13T11:10:57.439Z,19.47
2023-03-13T11:16:01.601Z,19.57
2023-03-13T11:21:17.725Z,19.65
2023-03-13T11:26:24.842Z,19.77
2023-03-13T11:31:30.682Z,19.88
2023-03-13T11:36:35.645Z,20.00
2023-03-13T11:41:49.403Z,20.07
2023-03-13T11:46:58.366Z,20.06
2023-03-13T11:52:06.435Z,20.02
2023-03-13T11:57:13.334Z,19.93
2023-03-13T12:02:19.380Z,19.91
2023-03-13T12:07:24.491Z,19.92
2023-03-13T12:12:34.946Z,19.98
2023-03-13T12:17:38.776Z,20.11
2023-03-13T12:22:43.953Z,20.11
2023-03-13T12:27:48.986Z,20.09
2023-03-13T12:32:55.707Z,20.06
2023-03-13T12:38:01.616Z,20.03
2023-03-13T12:43:10.356Z,20.02
2023-03-13T12:48:39.774Z,20.05
2023-03-13T12:54:08.705Z,20.02
2023-03-13T12:59:15.975Z,20.04
2023-03-13T13:04:19.526Z,20.05
2023-03-13T13:09:24.089Z,20.10
2023-03-13T13:14:59.119Z,20.12
2023-03-13T13:20:22.450Z,20.05
2023-03-13T13:25:35.236Z,19.88
2023-03-13T13:30:39.511Z,19.86
2023-03-13T13:35:42.541Z,19.95
2023-03-13T13:40:59.272Z,20.01
2023-03-13T13:46:06.033Z,20.04
2023-03-13T13:51:26.292Z,20.07
2023-03-13T13:56:31.318Z,20.04
2023-03-13T14:01:35.535Z,20.01
2023-03-13T14:06:38.964Z,20.02
2023-03-13T14:11:41.698Z,20.04
2023-03-13T14:16:47.309Z,20.08
2023-03-13T14:21:50.134Z,20.17
2023-03-13T14:26:52.924Z,20.36
2023-03-13T14:31:57.835Z,20.41
2023-03-13T14:37:17.386Z,20.42
2023-03-13T14:42:20.677Z,20.41
2023-03-13T14:47:25.987Z,20.41
2023-03-13T14:52:29.086Z,20.42
2023-03-13T14:57:32.369Z,20.42
2023-03-13T15:02:37.491Z,20.44
2023-03-13T15:07:41.274Z,20.63
2023-03-13T15:12:44.245Z,20.80
2023-03-13T15:17:48.422Z,20.80
2023-03-13T15:22:51.456Z,20.83
2023-03-13T15:27:54.283Z,21.23
2023-03-13T15:32:58.497Z,20.81
2023-03-13T15:38:02.004Z,20.67
2023-03-13T15:43:04.850Z,20.65
2023-03-13T15:48:15.779Z,20.64
2023-03-13T15:53:19.425Z,20.64
2023-03-13T15:58:22.366Z,20.60
2023-03-13T16:03:28.306Z,20.56
2023-03-13T16:08:36.562Z,20.53
2023-03-13T16:13:39.959Z,20.52
2023-03-13T16:18:44.539Z,20.29
2023-03-13T16:23:47.401Z,19.62
2023-03-13T16:28:50.271Z,19.47
2023-03-13T16:33:54.875Z,19.99
2023-03-13T16:38:58.165Z,20.14
2023-03-13T16:44:01.131Z,20.26
2023-03-13T16:49:05.464Z,20.32
2023-03-13T16:54:08.241Z,20.38
2023-03-13T16:59:13.406Z,20.44
2023-03-13T17:04:17.594Z,20.51
2023-03-13T17:09:20.382Z,20.56
2023-03-13T17:14:23.158Z,20.60
2023-03-13T17:19:27.276Z,20.64
2023-03-13T17:24:30.028Z,20.69
2023-03-13T17:29:32.847Z,20.77
2023-03-13T17:34:37.027Z,20.82
2023-03-13T17:39:39.882Z,20.85
2023-03-13T17:44:42.807Z,20.86
2023-03-13T17:49:47.093Z,20.86
2023-03-13T17:54:49.911Z,20.91
2023-03-13T17:59:52.692Z,20.94
2023-03-13T18:04:56.950Z,20.93
2023-03-13T18:09:59.883Z,20.96
2023-03-13T18:15:02.641Z,20.99
2023-03-13T18:20:10.719Z,21.00
2023-03-13T18:25:13.743Z,21.03
2023-03-13T18:30:17.886Z,21.03
2023-03-13T18:35:22.216Z,21.06
2023-03-13T18:40:25.982Z,21.07
2023-03-13T18:45:29.038Z,21.09
2023-03-13T18:50:33.350Z,21.11
2023-03-13T18:55:36.092Z,21.12
2023-03-13T19:00:39.068Z,21.15
2023-03-13T19:05:43.303Z,21.17
2023-03-13T19:10:46.456Z,21.16
2023-03-13T19:15:49.436Z,21.19
2023-03-13T19:20:53.565Z,21.22
2023-03-13T19:25:56.946Z,21.24
2023-03-13T19:30:59.743Z,21.23
2023-03-13T19:36:04.132Z,21.24
2023-03-13T19:41:07.214Z,21.28
2023-03-13T19:46:24.424Z,21.31
2023-03-13T19:51:29.408Z,21.27
2023-03-13T19:56:32.611Z,21.30
2023-03-13T20:01:35.516Z,21.29
2023-03-13T20:06:39.770Z,21.33
2023-03-13T20:11:42.659Z,21.33
2023-03-13T20:16:48.891Z,21.32
2023-03-13T20:21:53.215Z,21.35
2023-03-13T20:26:56.545Z,21.37
2023-03-13T20:32:01.249Z,21.36
2023-03-13T20:37:05.598Z,21.36
2023-03-13T20:42:08.961Z,21.38
2023-03-13T20:47:11.922Z,21.42
2023-03-13T20:52:16.288Z,21.42
2023-03-13T20:57:19.756Z,21.46
2023-03-13T21:02:22.848Z,21.41
2023-03-13T21:07:27.387Z,21.43
2023-03-13T21:12:30.469Z,21.45
2023-03-13T21:17:33.228Z,21.45
2023-03-13T21:22:37.343Z,21.42
2023-03-13T21:27:40.188Z,21.43
2023-03-13T21:32:43.196Z,21.46
2023-03-13T21:37:47.550Z,21.47
2023-03-13T21:42:50.473Z,21.47
2023-03-13T21:47:54.918Z,21.45
2023-03-13T21:52:59.133Z,21.46
2023-03-13T21:58:01.925Z,21.45
2023-03-13T22:03:04.827Z,21.52
2023-03-13T22:08:09.089Z,21.49
2023-03-13T22:13:12.048Z,21.43
2023-03-13T22:18:15.023Z,21.47
2023-03-13T22:23:19.215Z,21.44
2023-03-13T22:28:22.146Z,21.44
2023-03-13T22:33:24.931Z,21.42
2023-03-13T22:38:29.044Z,21.45
2023-03-13T22:43:31.956Z,21.42
2023-03-13T22:48:34.785Z,21.43
2023-03-13T22:53:40.003Z,21.44
2023-03-13T22:58:43.183Z,21.41
2023-03-13T23:03:46.293Z,21.41
2023-03-13T23:08:50.473Z,21.39
2023-03-13T23:13:53.423Z,21.35
2023-03-13T23:18:56.546Z,21.32
2023-03-13T23:24:00.668Z,21.37
2023-03-13T23:29:03.452Z,21.36
2023-03-13T23:34:06.271Z,21.35
2023-03-13T23:39:10.466Z,21.32
2023-03-13T23:44:13.271Z,21.32
2023-03-13T23:49:16.357Z,21.28
2023-03-13T23:54:21.640Z,21.27
2023-03-13T23:59:24.673Z,21.26
